sensor_id;sensor_type;location;lat;lon;timestamp;temperature;humidity
12233;DHT22;6179;51.748;8.728;2023-03-23T00:03:05;12.70;92.00
12233;DHT22;6179;51.748;8.728;2023-03-23T00:09:05;12.70;91.70
12233;DHT22;6179;51.748;8.728;2023-03-23T00:15:08;12.80;91.60
12233;DHT22;6179;51.748;8.728;2023-03-23T00:21:13;12.80;91.10
12233;DHT22;6179;51.748;8.728;2023-03-23T00:27:14;12.90;91.30
12233;DHT22;6179;51.748;8.728;2023-03-23T00:33:14;12.70;91.70
12233;DHT22;6179;51.748;8.728;2023-03-23T00:39:17;13.00;91.30
12233;DHT22;6179;51.748;8.728;2023-03-23T00:45:18;12.80;91.70
12233;DHT22;6179;51.748;8.728;2023-03-23T00:51:19;12.80;91.20
12233;DHT22;6179;51.748;8.728;2023-03-23T00:57:20;12.80;91.60
12233;DHT22;6179;51.748;8.728;2023-03-23T01:03:24;13.00;91.70
12233;DHT22;6179;51.748;8.728;2023-03-23T01:09:27;12.70;92.60
12233;DHT22;6179;51.748;8.728;2023-03-23T01:15:28;12.70;94.20
12233;DHT22;6179;51.748;8.728;2023-03-23T01:21:29;12.60;94.70
12233;DHT22;6179;51.748;8.728;2023-03-23T01:27:30;12.40;96.10
12233;DHT22;6179;51.748;8.728;2023-03-23T01:33:31;12.30;96.60
12233;DHT22;6179;51.748;8.728;2023-03-23T01:39:32;12.30;96.20
12233;DHT22;6179;51.748;8.728;2023-03-23T01:45:34;12.30;96.70
12233;DHT22;6179;51.748;8.728;2023-03-23T01:51:43;12.30;97.30
12233;DHT22;6179;51.748;8.728;2023-03-23T01:57:45;12.20;97.40
12233;DHT22;6179;51.748;8.728;2023-03-23T02:03:48;12.20;97.40
12233;DHT22;6179;51.748;8.728;2023-03-23T02:09:52;12.40;97.10
12233;DHT22;6179;51.748;8.728;2023-03-23T02:29:44;12.20;97.60
12233;DHT22;6179;51.748;8.728;2023-03-23T02:35:39;12.30;98.00
12233;DHT22;6179;51.748;8.728;2023-03-23T02:41:54;12.10;98.30
12233;DHT22;6179;51.748;8.728;2023-03-23T02:47:57;12.10;98.30
12233;DHT22;6179;51.748;8.728;2023-03-23T02:53:59;11.90;98.30
12233;DHT22;6179;51.748;8.728;2023-03-23T03:00:01;11.80;98.30
12233;DHT22;6179;51.748;8.728;2023-03-23T03:06:14;11.60;98.30
12233;DHT22;6179;51.748;8.728;2023-03-23T03:18:44;11.20;98.30
12233;DHT22;6179;51.748;8.728;2023-03-23T03:24:47;11.40;98.30
12233;DHT22;6179;51.748;8.728;2023-03-23T03:30:53;11.20;98.30
12233;DHT22;6179;51.748;8.728;2023-03-23T03:36:56;11.00;98.30
12233;DHT22;6179;51.748;8.728;2023-03-23T03:42:59;11.10;98.30
12233;DHT22;6179;51.748;8.728;2023-03-23T03:49:00;11.00;98.30
12233;DHT22;6179;51.748;8.728;2023-03-23T03:55:01;11.10;98.30
12233;DHT22;6179;51.748;8.728;2023-03-23T04:01:03;10.90;98.30
12233;DHT22;6179;51.748;8.728;2023-03-23T04:07:03;11.00;98.30
12233;DHT22;6179;51.748;8.728;2023-03-23T04:13:05;11.00;98.30
12233;DHT22;6179;51.748;8.728;2023-03-23T04:19:07;11.10;98.30
12233;DHT22;6179;51.748;8.728;2023-03-23T04:25:08;11.30;98.30
12233;DHT22;6179;51.748;8.728;2023-03-23T04:31:11;11.10;98.30
12233;DHT22;6179;51.748;8.728;2023-03-23T04:37:13;11.30;98.30
12233;DHT22;6179;51.748;8.728;2023-03-23T04:43:13;11.20;98.30
12233;DHT22;6179;51.748;8.728;2023-03-23T04:49:16;11.30;98.30
12233;DHT22;6179;51.748;8.728;2023-03-23T04:55:21;11.20;98.30
12233;DHT22;6179;51.748;8.728;2023-03-23T05:01:22;11.20;98.30
12233;DHT22;6179;51.748;8.728;2023-03-23T05:07:23;11.20;98.30
12233;DHT22;6179;51.748;8.728;2023-03-23T05:13:24;11.30;98.30
12233;DHT22;6179;51.748;8.728;2023-03-23T05:19:25;11.20;98.30
12233;DHT22;6179;51.748;8.728;2023-03-23T05:25:26;11.30;98.30
12233;DHT22;6179;51.748;8.728;2023-03-23T05:31:27;11.20;98.30
12233;DHT22;6179;51.748;8.728;2023-03-23T05:37:28;11.40;98.30
12233;DHT22;6179;51.748;8.728;2023-03-23T05:43:32;11.50;98.30
12233;DHT22;6179;51.748;8.728;2023-03-23T05:49:33;11.50;98.30
12233;DHT22;6179;51.748;8.728;2023-03-23T05:55:33;11.50;98.30
12233;DHT22;6179;51.748;8.728;2023-03-23T06:01:35;11.50;98.30
12233;DHT22;6179;51.748;8.728;2023-03-23T06:07:35;11.60;98.30
12233;DHT22;6179;51.748;8.728;2023-03-23T06:13:38;11.80;98.30
12233;DHT22;6179;51.748;8.728;2023-03-23T06:19:38;11.70;98.30
12233;DHT22;6179;51.748;8.728;2023-03-23T06:25:40;11.70;98.30
12233;DHT22;6179;51.748;8.728;2023-03-23T06:31:51;11.90;98.30
12233;DHT22;6179;51.748;8.728;2023-03-23T06:37:53;12.20;98.10
12233;DHT22;6179;51.748;8.728;2023-03-23T06:43:54;12.00;98.30
12233;DHT22;6179;51.748;8.728;2023-03-23T06:49:55;11.90;98.30
12233;DHT22;6179;51.748;8.728;2023-03-23T06:55:56;12.00;98.10
12233;DHT22;6179;51.748;8.728;2023-03-23T07:01:57;12.10;97.60
12233;DHT22;6179;51.748;8.728;2023-03-23T07:07:58;12.30;97.80
12233;DHT22;6179;51.748;8.728;2023-03-23T07:13:58;12.30;97.40
12233;DHT22;6179;51.748;8.728;2023-03-23T07:19:59;12.30;97.00
12233;DHT22;6179;51.748;8.728;2023-03-23T07:26:00;12.30;96.40
12233;DHT22;6179;51.748;8.728;2023-03-23T07:32:01;12.60;96.60
12233;DHT22;6179;51.748;8.728;2023-03-23T07:38:03;12.60;96.10
12233;DHT22;6179;51.748;8.728;2023-03-23T07:44:04;12.80;95.30
12233;DHT22;6179;51.748;8.728;2023-03-23T07:50:06;13.00;95.40
12233;DHT22;6179;51.748;8.728;2023-03-23T07:56:07;13.20;94.10
12233;DHT22;6179;51.748;8.728;2023-03-23T08:02:09;13.30;92.80
12233;DHT22;6179;51.748;8.728;2023-03-23T08:08:10;13.20;93.70
12233;DHT22;6179;51.748;8.728;2023-03-23T08:14:11;13.30;93.70
12233;DHT22;6179;51.748;8.728;2023-03-23T08:20:12;13.40;91.70
12233;DHT22;6179;51.748;8.728;2023-03-23T08:26:13;13.40;91.00
12233;DHT22;6179;51.748;8.728;2023-03-23T08:32:15;13.50;91.20
12233;DHT22;6179;51.748;8.728;2023-03-23T08:38:16;13.70;90.80
12233;DHT22;6179;51.748;8.728;2023-03-23T08:44:16;13.70;90.20
12233;DHT22;6179;51.748;8.728;2023-03-23T08:50:22;13.70;91.20
12233;DHT22;6179;51.748;8.728;2023-03-23T08:56:23;13.60;90.30
12233;DHT22;6179;51.748;8.728;2023-03-23T09:02:23;13.70;89.20
12233;DHT22;6179;51.748;8.728;2023-03-23T09:08:24;13.70;89.70
12233;DHT22;6179;51.748;8.728;2023-03-23T09:14:25;14.00;89.50
12233;DHT22;6179;51.748;8.728;2023-03-23T09:20:28;14.10;87.40
12233;DHT22;6179;51.748;8.728;2023-03-23T09:26:28;14.10;88.60
12233;DHT22;6179;51.748;8.728;2023-03-23T09:32:29;14.40;87.50
12233;DHT22;6179;51.748;8.728;2023-03-23T09:38:30;14.20;87.40
12233;DHT22;6179;51.748;8.728;2023-03-23T09:44:39;13.90;87.60
12233;DHT22;6179;51.748;8.728;2023-03-23T09:50:45;14.10;87.30
12233;DHT22;6179;51.748;8.728;2023-03-23T09:56:49;14.10;86.80
12233;DHT22;6179;51.748;8.728;2023-03-23T10:09:00;14.30;85.10
12233;DHT22;6179;51.748;8.728;2023-03-23T10:21:22;14.40;84.60
12233;DHT22;6179;51.748;8.728;2023-03-23T10:27:38;14.40;85.70
12233;DHT22;6179;51.748;8.728;2023-03-23T10:33:49;14.40;85.00
12233;DHT22;6179;51.748;8.728;2023-03-23T10:39:53;14.30;86.20
12233;DHT22;6179;51.748;8.728;2023-03-23T10:46:01;14.70;84.20
12233;DHT22;6179;51.748;8.728;2023-03-23T10:58:31;15.10;83.30
12233;DHT22;6179;51.748;8.728;2023-03-23T11:04:32;15.60;82.20
12233;DHT22;6179;51.748;8.728;2023-03-23T11:10:41;15.40;79.80
12233;DHT22;6179;51.748;8.728;2023-03-23T11:16:45;15.20;82.00
12233;DHT22;6179;51.748;8.728;2023-03-23T11:22:47;14.80;81.80
12233;DHT22;6179;51.748;8.728;2023-03-23T11:35:03;14.80;82.30
12233;DHT22;6179;51.748;8.728;2023-03-23T11:41:10;14.50;82.70
12233;DHT22;6179;51.748;8.728;2023-03-23T11:47:42;14.40;83.40
12233;DHT22;6179;51.748;8.728;2023-03-23T11:53:55;14.20;85.40
12233;DHT22;6179;51.748;8.728;2023-03-23T11:59:58;14.20;83.90
12233;DHT22;6179;51.748;8.728;2023-03-23T12:06:06;14.10;85.00
12233;DHT22;6179;51.748;8.728;2023-03-23T12:18:42;12.20;96.30
12233;DHT22;6179;51.748;8.728;2023-03-23T12:49:46;11.80;97.10
12233;DHT22;6179;51.748;8.728;2023-03-23T13:02:35;12.40;97.50
12233;DHT22;6179;51.748;8.728;2023-03-23T13:08:41;12.30;97.50
12233;DHT22;6179;51.748;8.728;2023-03-23T13:14:54;12.30;98.20
12233;DHT22;6179;51.748;8.728;2023-03-23T13:27:04;12.20;98.30
12233;DHT22;6179;51.748;8.728;2023-03-23T13:33:11;11.90;98.30
12233;DHT22;6179;51.748;8.728;2023-03-23T13:39:25;11.80;98.30
12233;DHT22;6179;51.748;8.728;2023-03-23T13:57:52;11.70;98.30
12233;DHT22;6179;51.748;8.728;2023-03-23T14:03:56;11.70;98.30
12233;DHT22;6179;51.748;8.728;2023-03-23T14:10:06;11.50;98.30
12233;DHT22;6179;51.748;8.728;2023-03-23T14:22:40;11.80;98.30
12233;DHT22;6179;51.748;8.728;2023-03-23T14:28:44;11.90;98.30
12233;DHT22;6179;51.748;8.728;2023-03-23T14:34:47;11.80;98.30
12233;DHT22;6179;51.748;8.728;2023-03-23T14:40:48;11.70;98.30
12233;DHT22;6179;51.748;8.728;2023-03-23T14:46:49;11.70;98.30
12233;DHT22;6179;51.748;8.728;2023-03-23T14:52:50;11.80;98.30
12233;DHT22;6179;51.748;8.728;2023-03-23T14:58:51;12.00;98.30
12233;DHT22;6179;51.748;8.728;2023-03-23T15:04:59;12.30;98.30
12233;DHT22;6179;51.748;8.728;2023-03-23T15:17:24;12.00;98.30
12233;DHT22;6179;51.748;8.728;2023-03-23T15:23:29;11.60;98.30
12233;DHT22;6179;51.748;8.728;2023-03-23T15:29:29;11.70;98.30
12233;DHT22;6179;51.748;8.728;2023-03-23T15:35:35;11.50;98.30
12233;DHT22;6179;51.748;8.728;2023-03-23T15:41:48;11.50;98.30
12233;DHT22;6179;51.748;8.728;2023-03-23T15:47:49;11.50;98.30
12233;DHT22;6179;51.748;8.728;2023-03-23T15:53:51;12.00;98.30
12233;DHT22;6179;51.748;8.728;2023-03-23T15:59:52;11.90;98.30
12233;DHT22;6179;51.748;8.728;2023-03-23T16:05:57;12.20;98.30
12233;DHT22;6179;51.748;8.728;2023-03-23T16:11:59;12.40;98.30
12233;DHT22;6179;51.748;8.728;2023-03-23T16:18:00;12.60;98.30
12233;DHT22;6179;51.748;8.728;2023-03-23T16:24:01;13.20;98.30
12233;DHT22;6179;51.748;8.728;2023-03-23T16:30:09;12.70;98.30
12233;DHT22;6179;51.748;8.728;2023-03-23T16:36:14;13.10;98.30
12233;DHT22;6179;51.748;8.728;2023-03-23T16:42:14;12.90;98.30
12233;DHT22;6179;51.748;8.728;2023-03-23T16:48:15;12.90;98.30
12233;DHT22;6179;51.748;8.728;2023-03-23T16:54:16;12.80;98.30
12233;DHT22;6179;51.748;8.728;2023-03-23T17:00:17;12.70;98.30
12233;DHT22;6179;51.748;8.728;2023-03-23T17:06:22;12.60;98.30
12233;DHT22;6179;51.748;8.728;2023-03-23T17:12:23;12.40;98.30
12233;DHT22;6179;51.748;8.728;2023-03-23T17:18:23;12.30;98.30
12233;DHT22;6179;51.748;8.728;2023-03-23T17:24:24;12.70;98.30
12233;DHT22;6179;51.748;8.728;2023-03-23T17:30:26;12.70;98.30
12233;DHT22;6179;51.748;8.728;2023-03-23T17:36:27;12.80;98.30
12233;DHT22;6179;51.748;8.728;2023-03-23T17:42:28;13.00;98.30
12233;DHT22;6179;51.748;8.728;2023-03-23T17:48:29;12.80;98.30
12233;DHT22;6179;51.748;8.728;2023-03-23T17:54:30;12.50;98.30
12233;DHT22;6179;51.748;8.728;2023-03-23T18:00:30;12.60;98.30
12233;DHT22;6179;51.748;8.728;2023-03-23T18:06:31;12.40;98.30
12233;DHT22;6179;51.748;8.728;2023-03-23T18:12:32;12.30;98.30
12233;DHT22;6179;51.748;8.728;2023-03-23T18:18:33;12.30;98.30
12233;DHT22;6179;51.748;8.728;2023-03-23T18:24:35;12.20;98.30
12233;DHT22;6179;51.748;8.728;2023-03-23T18:30:36;12.10;98.30
12233;DHT22;6179;51.748;8.728;2023-03-23T18:36:36;12.30;98.30
12233;DHT22;6179;51.748;8.728;2023-03-23T18:42:41;12.30;98.30
12233;DHT22;6179;51.748;8.728;2023-03-23T18:48:41;12.20;98.30
12233;DHT22;6179;51.748;8.728;2023-03-23T18:54:42;12.00;98.30
12233;DHT22;6179;51.748;8.728;2023-03-23T19:00:44;12.00;98.30
12233;DHT22;6179;51.748;8.728;2023-03-23T19:06:46;11.80;98.30
12233;DHT22;6179;51.748;8.728;2023-03-23T19:12:47;11.80;98.30
12233;DHT22;6179;51.748;8.728;2023-03-23T19:18:48;11.70;98.30
12233;DHT22;6179;51.748;8.728;2023-03-23T19:24:49;11.40;98.30
12233;DHT22;6179;51.748;8.728;2023-03-23T19:30:53;11.50;98.30
12233;DHT22;6179;51.748;8.728;2023-03-23T19:36:54;11.40;98.30
12233;DHT22;6179;51.748;8.728;2023-03-23T19:42:55;11.50;98.30
12233;DHT22;6179;51.748;8.728;2023-03-23T19:48:56;11.50;98.30
12233;DHT22;6179;51.748;8.728;2023-03-23T19:54:57;11.70;98.30
12233;DHT22;6179;51.748;8.728;2023-03-23T20:00:59;11.70;98.30
12233;DHT22;6179;51.748;8.728;2023-03-23T20:07:00;11.70;98.30
12233;DHT22;6179;51.748;8.728;2023-03-23T20:13:02;11.50;98.30
12233;DHT22;6179;51.748;8.728;2023-03-23T20:19:03;11.80;97.80
12233;DHT22;6179;51.748;8.728;2023-03-23T20:25:04;11.90;97.10
12233;DHT22;6179;51.748;8.728;2023-03-23T20:31:09;12.20;95.50
12233;DHT22;6179;51.748;8.728;2023-03-23T20:37:11;12.00;96.20
12233;DHT22;6179;51.748;8.728;2023-03-23T20:43:15;11.90;96.00
12233;DHT22;6179;51.748;8.728;2023-03-23T20:49:17;11.70;96.50
12233;DHT22;6179;51.748;8.728;2023-03-23T20:55:19;11.50;97.50
12233;DHT22;6179;51.748;8.728;2023-03-23T21:01:19;11.50;97.80
12233;DHT22;6179;51.748;8.728;2023-03-23T21:07:20;11.50;97.60
12233;DHT22;6179;51.748;8.728;2023-03-23T21:13:22;11.70;97.30
12233;DHT22;6179;51.748;8.728;2023-03-23T21:19:23;12.00;96.10
12233;DHT22;6179;51.748;8.728;2023-03-23T21:25:24;12.20;96.20
12233;DHT22;6179;51.748;8.728;2023-03-23T21:31:25;12.00;96.70
12233;DHT22;6179;51.748;8.728;2023-03-23T21:37:30;12.10;96.20
12233;DHT22;6179;51.748;8.728;2023-03-23T21:43:30;11.80;97.50
12233;DHT22;6179;51.748;8.728;2023-03-23T21:49:31;12.30;95.90
12233;DHT22;6179;51.748;8.728;2023-03-23T21:55:32;12.30;95.80
12233;DHT22;6179;51.748;8.728;2023-03-23T22:01:33;12.30;95.40
12233;DHT22;6179;51.748;8.728;2023-03-23T22:07:36;12.40;94.40
12233;DHT22;6179;51.748;8.728;2023-03-23T22:13:39;12.50;94.30
12233;DHT22;6179;51.748;8.728;2023-03-23T22:19:40;12.50;93.00
12233;DHT22;6179;51.748;8.728;2023-03-23T22:25:41;12.50;93.20
12233;DHT22;6179;51.748;8.728;2023-03-23T22:31:43;12.70;92.60
12233;DHT22;6179;51.748;8.728;2023-03-23T22:37:43;12.60;93.20
12233;DHT22;6179;51.748;8.728;2023-03-23T22:43:44;12.70;92.80
12233;DHT22;6179;51.748;8.728;2023-03-23T22:49:45;12.80;92.50
12233;DHT22;6179;51.748;8.728;2023-03-23T22:55:48;12.70;92.50
12233;DHT22;6179;51.748;8.728;2023-03-23T23:01:49;12.70;93.30
12233;DHT22;6179;51.748;8.728;2023-03-23T23:07:50;12.80;93.20
12233;DHT22;6179;51.748;8.728;2023-03-23T23:13:51;13.00;92.40
12233;DHT22;6179;51.748;8.728;2023-03-23T23:19:52;12.70;93.90
12233;DHT22;6179;51.748;8.728;2023-03-23T23:25:53;13.10;93.80
12233;DHT22;6179;51.748;8.728;2023-03-23T23:31:54;12.80;96.00
12233;DHT22;6179;51.748;8.728;2023-03-23T23:37:55;12.80;97.60
12233;DHT22;6179;51.748;8.728;2023-03-23T23:43:56;12.40;98.30
12233;DHT22;6179;51.748;8.728;2023-03-23T23:49:57;12.10;98.30
12233;DHT22;6179;51.748;8.728;2023-03-23T23:56:02;12.30;98.30
